createdAt,value
2023-05-14T00:01:47.714Z,100128.09
2023-05-14T00:04:20.796Z,100122.05
2023-05-14T00:06:52.896Z,100119.06
2023-05-14T00:09:25.087Z,100120.40
2023-05-14T00:11:57.295Z,100119.98
2023-05-14T00:14:29.436Z,100118.17
2023-05-14T00:17:01.586Z,100115.96
2023-05-14T00:19:33.693Z,100112.95
2023-05-14T00:22:05.762Z,100114.23
2023-05-14T00:24:38.435Z,100109.93
2023-05-14T00:27:11.011Z,100110.90
2023-05-14T00:29:43.121Z,100107.10
2023-05-14T00:32:15.220Z,100107.05
2023-05-14T00:34:47.269Z,100112.08
2023-05-14T00:37:19.274Z,100113.78
2023-05-14T00:39:51.972Z,100117.40
2023-05-14T00:42:23.976Z,100117.26
2023-05-14T00:44:56.163Z,100118.43
2023-05-14T00:47:28.404Z,100116.59
2023-05-14T00:50:00.499Z,100116.23
2023-05-14T00:52:32.671Z,100122.16
2023-05-14T00:55:07.133Z,100121.56
2023-05-14T00:57:39.466Z,100123.25
2023-05-14T01:00:13.384Z,100124.73
2023-05-14T01:02:45.640Z,100126.30
2023-05-14T01:05:17.957Z,100128.84
2023-05-14T01:08:00.430Z,100131.66
2023-05-14T01:10:40.170Z,100132.34
2023-05-14T01:13:21.243Z,100130.05
2023-05-14T01:15:55.140Z,100132.25
2023-05-14T01:18:29.493Z,100129.01
2023-05-14T01:21:03.031Z,100131.77
2023-05-14T01:23:35.173Z,100136.08
2023-05-14T01:26:07.615Z,100133.66
2023-05-14T01:28:40.826Z,100133.60
2023-05-14T01:31:19.965Z,100124.65
2023-05-14T01:33:53.817Z,100118.48
2023-05-14T01:36:26.479Z,100118.91
2023-05-14T01:39:00.513Z,100117.71
2023-05-14T01:41:34.106Z,100121.50
2023-05-14T01:44:06.548Z,100122.95
2023-05-14T01:46:38.763Z,100126.83
2023-05-14T01:49:10.920Z,100124.30
2023-05-14T01:51:43.125Z,100122.37
2023-05-14T01:54:15.120Z,100116.65
2023-05-14T01:56:47.325Z,100115.45
2023-05-14T01:59:19.606Z,100113.63
2023-05-14T02:01:52.118Z,100105.91
2023-05-14T02:04:24.297Z,100107.95
2023-05-14T02:06:56.880Z,100109.72
2023-05-14T02:09:30.835Z,100107.15
2023-05-14T02:12:03.631Z,100107.73
2023-05-14T02:14:36.132Z,100105.52
2023-05-14T02:17:08.475Z,100098.41
2023-05-14T02:19:40.437Z,100099.01
2023-05-14T02:22:12.508Z,100103.90
2023-05-14T02:24:44.542Z,100105.16
2023-05-14T02:27:16.812Z,100107.46
2023-05-14T02:29:48.862Z,100098.49
2023-05-14T02:32:20.957Z,100097.14
2023-05-14T02:34:53.005Z,100091.21
2023-05-14T02:37:25.101Z,100086.62
2023-05-14T02:39:57.140Z,100086.30
2023-05-14T02:42:29.271Z,100084.77
2023-05-14T02:45:01.843Z,100086.58
2023-05-14T02:47:36.907Z,100082.63
2023-05-14T02:50:11.876Z,100083.66
2023-05-14T02:52:44.044Z,100089.35
2023-05-14T02:55:16.377Z,100084.50
2023-05-14T02:57:48.528Z,100078.23
2023-05-14T03:00:21.857Z,100072.98
2023-05-14T03:02:54.591Z,100063.83
2023-05-14T03:05:27.350Z,100062.52
2023-05-14T03:07:59.809Z,100069.95
2023-05-14T03:10:33.039Z,100063.80
2023-05-14T03:13:05.192Z,100057.85
2023-05-14T03:15:37.297Z,100054.94
2023-05-14T03:18:09.346Z,100053.66
2023-05-14T03:20:41.485Z,100050.04
2023-05-14T03:23:15.016Z,100055.25
2023-05-14T03:25:47.077Z,100057.81
2023-05-14T03:28:19.346Z,100061.73
2023-05-14T03:30:51.469Z,100063.17
2023-05-14T03:33:23.902Z,100068.02
2023-05-14T03:35:56.238Z,100061.70
2023-05-14T03:38:28.372Z,100058.59
2023-05-14T03:41:00.546Z,100058.99
2023-05-14T03:43:32.639Z,100059.92
2023-05-14T03:46:04.681Z,100058.03
2023-05-14T03:48:36.870Z,100060.71
2023-05-14T03:51:09.656Z,100058.66
2023-05-14T03:53:42.368Z,100059.92
2023-05-14T03:56:14.411Z,100059.35
2023-05-14T03:58:48.205Z,100060.66
2023-05-14T04:01:20.965Z,100061.98
2023-05-14T04:03:53.171Z,100061.55
2023-05-14T04:06:28.066Z,100066.06
2023-05-14T04:09:00.157Z,100065.21
2023-05-14T04:11:32.314Z,100060.17
2023-05-14T04:14:05.675Z,100060.40
2023-05-14T04:16:37.727Z,100056.84
2023-05-14T04:19:09.872Z,100049.99
2023-05-14T04:21:41.912Z,100046.45
2023-05-14T04:24:13.829Z,100046.70
2023-05-14T04:26:45.941Z,100042.35
2023-05-14T04:29:18.129Z,100043.05
2023-05-14T04:31:50.818Z,100035.75
2023-05-14T04:34:22.812Z,100036.38
2023-05-14T04:36:54.885Z,100041.30
2023-05-14T04:39:27.589Z,100043.92
2023-05-14T04:41:59.741Z,100040.85
2023-05-14T04:44:31.961Z,100044.38
2023-05-14T04:47:04.150Z,100046.06
2023-05-14T04:49:37.060Z,100045.90
2023-05-14T04:52:09.302Z,100042.33
2023-05-14T04:54:41.424Z,100041.70
2023-05-14T04:57:13.477Z,100039.59
2023-05-14T04:59:45.913Z,100039.14
2023-05-14T05:02:18.006Z,100037.20
2023-05-14T05:04:50.325Z,100033.89
2023-05-14T05:07:22.356Z,100043.65
2023-05-14T05:09:54.379Z,100043.38
2023-05-14T05:12:30.069Z,100042.27
2023-05-14T05:15:02.124Z,100040.60
2023-05-14T05:17:34.639Z,100033.77
2023-05-14T05:20:10.177Z,100027.98
2023-05-14T05:22:42.231Z,100030.80
2023-05-14T05:25:14.297Z,100029.86
2023-05-14T05:27:46.623Z,100030.02
2023-05-14T05:30:19.451Z,100033.33
2023-05-14T05:32:51.592Z,100036.59
2023-05-14T05:35:23.788Z,100038.08
2023-05-14T05:37:55.969Z,100034.81
2023-05-14T05:40:28.194Z,100034.31
2023-05-14T05:43:00.198Z,100037.42
2023-05-14T05:45:32.508Z,100040.45
2023-05-14T05:48:04.656Z,100045.52
2023-05-14T05:50:36.720Z,100044.69
2023-05-14T05:53:08.821Z,100040.71
2023-05-14T05:55:41.659Z,100039.49
2023-05-14T05:58:15.876Z,100039.27
2023-05-14T06:00:48.423Z,100038.60
2023-05-14T06:03:20.462Z,100039.42
2023-05-14T06:05:53.063Z,100036.80
2023-05-14T06:08:31.898Z,100033.01
2023-05-14T06:11:04.217Z,100031.91
2023-05-14T06:13:36.801Z,100026.23
2023-05-14T06:16:09.491Z,100018.84
2023-05-14T06:18:41.576Z,100017.86
2023-05-14T06:21:13.611Z,100016.75
2023-05-14T06:23:45.676Z,100019.65
2023-05-14T06:26:17.861Z,100012.52
2023-05-14T06:28:52.732Z,100007.87
2023-05-14T06:31:24.869Z,100009.92
2023-05-14T06:33:57.061Z,100003.63
2023-05-14T06:36:29.281Z,100004.97
2023-05-14T06:39:01.438Z,100003.81
2023-05-14T06:41:33.797Z,100007.77
2023-05-14T06:44:06.661Z,100008.88
2023-05-14T06:46:38.719Z,100010.23
2023-05-14T06:49:10.843Z,100012.11
2023-05-14T06:51:43.101Z,100011.73
2023-05-14T06:54:15.454Z,100012.55
2023-05-14T06:56:47.770Z,100009.33
2023-05-14T06:59:19.810Z,100003.85
2023-05-14T07:01:51.974Z,100000.42
2023-05-14T07:04:24.325Z,99998.92
2023-05-14T07:06:56.504Z,99996.89
2023-05-14T07:09:29.577Z,99996.24
2023-05-14T07:12:01.779Z,99999.58
2023-05-14T07:14:34.501Z,99995.75
2023-05-14T07:17:07.007Z,99991.39
2023-05-14T07:19:39.240Z,99993.13
2023-05-14T07:22:11.514Z,99996.44
2023-05-14T07:24:43.575Z,100000.61
2023-05-14T07:27:17.090Z,100001.30
2023-05-14T07:29:49.299Z,100000.96
2023-05-14T07:32:21.774Z,99998.86
2023-05-14T07:34:54.149Z,99993.83
2023-05-14T07:37:27.151Z,100000.27
2023-05-14T07:39:59.513Z,99999.91
2023-05-14T07:42:36.441Z,100001.30
2023-05-14T07:45:11.884Z,100006.34
2023-05-14T07:47:44.212Z,100001.48
2023-05-14T07:50:16.748Z,100000.62
2023-05-14T07:52:48.878Z,99997.13
2023-05-14T07:55:21.121Z,99985.45
2023-05-14T07:57:53.219Z,99980.36
2023-05-14T08:00:25.537Z,99975.64
2023-05-14T08:02:58.101Z,99970.36
2023-05-14T08:05:30.516Z,99956.89
2023-05-14T08:08:02.824Z,99954.13
2023-05-14T08:10:35.122Z,99950.72
2023-05-14T08:13:07.253Z,99948.68
2023-05-14T08:15:39.323Z,99946.17
2023-05-14T08:18:11.445Z,99943.70
2023-05-14T08:20:43.673Z,99934.04
2023-05-14T08:23:15.708Z,99932.86
2023-05-14T08:25:47.882Z,99930.25
2023-05-14T08:28:20.067Z,99928.14
2023-05-14T08:30:52.180Z,99925.45
2023-05-14T08:33:24.562Z,99924.21
2023-05-14T08:35:58.458Z,99923.48
2023-05-14T08:38:30.600Z,99921.96
2023-05-14T08:41:03.774Z,99919.38
2023-05-14T08:43:44.654Z,99915.33
2023-05-14T08:46:18.762Z,99915.20
2023-05-14T08:48:57.915Z,99910.23
2023-05-14T08:51:31.671Z,99907.36
2023-05-14T08:54:06.996Z,99902.02
2023-05-14T08:56:40.208Z,99900.97
2023-05-14T08:59:12.371Z,99896.16
2023-05-14T09:01:48.900Z,99894.34
2023-05-14T09:04:24.350Z,99892.30
2023-05-14T09:06:57.396Z,99889.10
2023-05-14T09:09:30.054Z,99888.65
2023-05-14T09:12:02.470Z,99885.25
2023-05-14T09:14:35.629Z,99886.55
2023-05-14T09:17:09.134Z,99890.77
2023-05-14T09:19:42.259Z,99888.46
2023-05-14T09:22:16.127Z,99888.73
2023-05-14T09:25:02.706Z,99883.02
2023-05-14T09:27:35.399Z,99880.39
2023-05-14T09:30:13.610Z,99880.16
2023-05-14T09:32:48.432Z,99881.19
2023-05-14T09:35:22.952Z,99876.09
2023-05-14T09:37:56.286Z,99876.29
2023-05-14T09:40:29.059Z,99872.71
2023-05-14T09:43:02.122Z,99871.34
2023-05-14T09:45:36.260Z,99866.21
2023-05-14T09:48:09.680Z,99868.42
2023-05-14T09:50:47.730Z,99866.27
2023-05-14T09:53:20.062Z,99862.62
2023-05-14T09:55:52.318Z,99851.77
2023-05-14T09:58:24.480Z,99852.68
2023-05-14T10:00:58.550Z,99853.23
2023-05-14T10:03:34.287Z,99847.59
2023-05-14T10:06:10.616Z,99846.46
2023-05-14T10:08:45.511Z,99840.52
2023-05-14T10:11:21.309Z,99830.02
2023-05-14T10:14:03.142Z,99828.70
2023-05-14T10:16:39.079Z,99829.67
2023-05-14T10:19:13.326Z,99825.91
2023-05-14T10:21:49.988Z,99822.53
2023-05-14T10:24:23.507Z,99817.00
2023-05-14T10:26:58.958Z,99815.90
2023-05-14T10:29:37.536Z,99810.21
2023-05-14T10:32:13.254Z,99808.80
2023-05-14T10:34:45.976Z,99808.81
2023-05-14T10:37:21.085Z,99802.87
2023-05-14T10:39:55.195Z,99805.31
2023-05-14T10:42:30.032Z,99799.89
2023-05-14T10:45:07.508Z,99793.36
2023-05-14T10:47:43.651Z,99790.41
2023-05-14T10:50:17.712Z,99792.39
2023-05-14T10:52:50.503Z,99791.38
2023-05-14T10:55:24.134Z,99794.38
2023-05-14T10:58:01.580Z,99793.95
2023-05-14T11:00:36.647Z,99793.92
2023-05-14T11:03:09.726Z,99800.59
2023-05-14T11:05:43.856Z,99800.95
2023-05-14T11:08:17.260Z,99792.82
2023-05-14T11:10:50.507Z,99788.98
2023-05-14T11:13:22.914Z,99782.08
2023-05-14T11:15:55.772Z,99777.25
2023-05-14T11:18:33.631Z,99774.15
2023-05-14T11:21:06.411Z,99781.56
2023-05-14T11:23:38.662Z,99780.69
2023-05-14T11:26:10.980Z,99776.30
2023-05-14T11:28:43.520Z,99773.14
2023-05-14T11:31:15.738Z,99770.79
2023-05-14T11:33:47.932Z,99773.78
2023-05-14T11:36:20.205Z,99769.41
2023-05-14T11:38:52.872Z,99767.85
2023-05-14T11:41:26.465Z,99768.37
2023-05-14T11:43:59.357Z,99762.65
2023-05-14T11:46:32.093Z,99764.11
2023-05-14T11:49:06.791Z,99760.92
2023-05-14T11:51:39.069Z,99758.18
2023-05-14T11:54:11.142Z,99756.63
2023-05-14T11:56:43.505Z,99755.11
2023-05-14T11:59:15.583Z,99746.40
2023-05-14T12:01:50.649Z,99744.25
2023-05-14T12:04:23.858Z,99744.27
2023-05-14T12:06:58.912Z,99742.73
2023-05-14T12:09:31.518Z,99742.33
2023-05-14T12:12:12.286Z,99742.22
2023-05-14T12:14:45.760Z,99740.30
2023-05-14T12:17:20.223Z,99735.54
2023-05-14T12:19:54.085Z,99733.20
2023-05-14T12:22:26.579Z,99735.54
2023-05-14T12:25:01.386Z,99734.83
2023-05-14T12:27:33.825Z,99732.48
2023-05-14T12:32:44.110Z,99721.25
2023-05-14T12:35:16.479Z,99713.27
2023-05-14T12:37:49.039Z,99714.36
2023-05-14T12:40:22.196Z,99706.89
2023-05-14T12:42:56.671Z,99711.52
2023-05-14T12:45:29.626Z,99708.25
2023-05-14T12:48:01.931Z,99708.30
2023-05-14T12:50:37.133Z,99707.95
2023-05-14T12:53:09.886Z,99706.33
2023-05-14T12:55:44.428Z,99702.61
2023-05-14T12:58:16.675Z,99702.35
2023-05-14T13:00:48.988Z,99698.61
2023-05-14T13:03:21.531Z,99702.40
2023-05-14T13:05:53.800Z,99693.49
2023-05-14T13:08:26.987Z,99690.63
2023-05-14T13:10:59.211Z,99691.77
2023-05-14T13:13:32.397Z,99690.41
2023-05-14T13:16:04.861Z,99684.89
2023-05-14T13:18:37.402Z,99683.83
2023-05-14T13:21:10.096Z,99681.24
2023-05-14T13:23:42.364Z,99677.34
2023-05-14T13:26:15.873Z,99672.42
2023-05-14T13:28:48.739Z,99670.81
2023-05-14T13:31:21.211Z,99668.27
2023-05-14T13:33:53.534Z,99665.69
2023-05-14T13:36:26.080Z,99664.95
2023-05-14T13:38:58.521Z,99659.80
2023-05-14T13:41:35.040Z,99659.58
2023-05-14T13:44:08.654Z,99657.58
2023-05-14T13:46:41.820Z,99653.88
2023-05-14T13:49:14.507Z,99648.36
2023-05-14T13:51:46.862Z,99646.40
2023-05-14T13:54:19.475Z,99635.27
2023-05-14T13:56:52.308Z,99632.55
2023-05-14T13:59:25.422Z,99627.48
2023-05-14T14:01:58.229Z,99631.80
2023-05-14T14:04:30.805Z,99630.25
2023-05-14T14:07:03.166Z,99628.62
2023-05-14T14:09:37.192Z,99624.94
2023-05-14T14:12:10.911Z,99632.91
2023-05-14T14:14:44.089Z,99630.64
2023-05-14T14:17:16.598Z,99623.98
2023-05-14T14:19:49.217Z,99616.18
2023-05-14T14:22:21.958Z,99614.91
2023-05-14T14:24:55.152Z,99616.35
2023-05-14T14:27:27.510Z,99611.88
2023-05-14T14:30:00.583Z,99607.92
2023-05-14T14:32:33.476Z,99601.59
2023-05-14T14:35:06.508Z,99595.55
2023-05-14T14:37:43.158Z,99592.10
2023-05-14T14:40:16.478Z,99589.60
2023-05-14T14:42:49.584Z,99586.64
2023-05-14T14:45:25.286Z,99583.45
2023-05-14T14:48:26.004Z,99575.93
2023-05-14T14:50:58.989Z,99573.39
2023-05-14T14:53:32.124Z,99564.98
2023-05-14T14:56:04.962Z,99559.52
2023-05-14T14:58:37.514Z,99553.34
2023-05-14T15:01:10.268Z,99547.36
2023-05-14T15:03:43.051Z,99543.17
2023-05-14T15:06:15.682Z,99538.17
2023-05-14T15:08:48.259Z,99539.90
2023-05-14T15:11:22.271Z,99540.21
2023-05-14T15:13:55.094Z,99541.70
2023-05-14T15:16:28.335Z,99533.95
2023-05-14T15:19:01.406Z,99532.09
2023-05-14T15:21:34.633Z,99536.84
2023-05-14T15:24:12.533Z,99538.06
2023-05-14T15:26:46.256Z,99533.17
2023-05-14T15:29:18.786Z,99526.56
2023-05-14T15:31:51.585Z,99524.89
2023-05-14T15:34:24.441Z,99524.31
2023-05-14T15:36:58.354Z,99519.86
2023-05-14T15:39:32.660Z,99519.41
2023-05-14T15:42:07.540Z,99518.77
2023-05-14T15:44:40.431Z,99513.05
2023-05-14T15:47:12.980Z,99513.09
2023-05-14T15:49:46.952Z,99509.48
2023-05-14T15:52:19.912Z,99503.17
2023-05-14T15:54:52.812Z,99498.52
2023-05-14T15:57:25.990Z,99498.11
2023-05-14T15:59:58.860Z,99493.75
2023-05-14T16:02:33.466Z,99490.65
2023-05-14T16:05:06.393Z,99483.31
2023-05-14T16:07:40.023Z,99481.77
2023-05-14T16:10:13.580Z,99480.88
2023-05-14T16:12:46.396Z,99473.54
2023-05-14T16:15:19.353Z,99468.98
2023-05-14T16:17:52.160Z,99461.97
2023-05-14T16:20:25.131Z,99460.24
2023-05-14T16:22:58.311Z,99457.09
2023-05-14T16:25:32.589Z,99449.78
2023-05-14T16:28:05.519Z,99448.92
2023-05-14T16:30:38.492Z,99446.95
2023-05-14T16:33:12.025Z,99447.40
2023-05-14T16:35:46.803Z,99443.70
2023-05-14T16:38:20.582Z,99446.56
2023-05-14T16:40:53.175Z,99449.08
2023-05-14T16:43:25.888Z,99455.27
2023-05-14T16:45:58.983Z,99462.16
2023-05-14T16:48:32.811Z,99460.67
2023-05-14T16:51:06.325Z,99461.70
2023-05-14T16:53:41.753Z,99454.60
2023-05-14T16:56:15.431Z,99450.98
2023-05-14T16:58:51.845Z,99444.20
2023-05-14T17:01:25.227Z,99440.00
2023-05-14T17:03:59.822Z,99434.74
2023-05-14T17:06:32.439Z,99431.37
2023-05-14T17:09:05.716Z,99424.30
2023-05-14T17:11:38.183Z,99427.49
2023-05-14T17:14:10.111Z,99423.40
2023-05-14T17:16:42.657Z,99431.80
2023-05-14T17:19:14.278Z,99435.02
2023-05-14T17:21:46.791Z,99441.52
2023-05-14T17:24:19.276Z,99456.69
2023-05-14T17:26:51.892Z,99461.23
2023-05-14T17:29:25.405Z,99467.76
2023-05-14T17:31:58.397Z,99467.64
2023-05-14T17:34:31.624Z,99474.14
2023-05-14T17:37:04.370Z,99472.85
2023-05-14T17:39:37.661Z,99470.33
2023-05-14T17:42:11.237Z,99465.20
2023-05-14T17:44:44.432Z,99457.98
2023-05-14T17:47:20.963Z,99459.45
2023-05-14T17:49:52.181Z,99466.42
2023-05-14T17:52:24.752Z,99465.77
2023-05-14T17:54:57.134Z,99456.94
2023-05-14T17:57:29.686Z,99460.95
2023-05-14T18:00:04.966Z,99460.24
2023-05-14T18:02:43.173Z,99458.44
2023-05-14T18:05:16.497Z,99450.62
2023-05-14T18:07:50.164Z,99451.99
2023-05-14T18:10:24.712Z,99454.25
2023-05-14T18:12:57.331Z,99465.75
2023-05-14T18:15:31.737Z,99475.13
2023-05-14T18:18:04.841Z,99488.33
2023-05-14T18:20:38.300Z,99495.77
2023-05-14T18:23:13.189Z,99500.47
2023-05-14T18:25:46.734Z,99501.01
2023-05-14T18:28:21.566Z,99499.98
2023-05-14T18:30:54.602Z,99506.77
2023-05-14T18:33:27.226Z,99503.45
2023-05-14T18:36:04.762Z,99500.84
2023-05-14T18:38:37.504Z,99495.65
2023-05-14T18:41:10.518Z,99493.21
2023-05-14T18:43:44.406Z,99506.23
2023-05-14T18:46:18.316Z,99507.80
2023-05-14T18:48:53.146Z,99515.95
2023-05-14T18:51:28.584Z,99510.93
2023-05-14T18:54:01.774Z,99513.70
2023-05-14T18:56:34.888Z,99513.52
2023-05-14T18:59:07.906Z,99508.67
2023-05-14T19:01:40.801Z,99509.70
2023-05-14T19:04:14.516Z,99498.79
2023-05-14T19:06:47.253Z,99499.98
2023-05-14T19:09:21.764Z,99501.55
2023-05-14T19:11:56.729Z,99499.82
2023-05-14T19:14:31.562Z,99492.89
2023-05-14T19:17:05.172Z,99494.80
2023-05-14T19:19:39.621Z,99492.38
2023-05-14T19:22:14.444Z,99495.84
2023-05-14T19:24:47.592Z,99500.01
2023-05-14T19:27:21.446Z,99502.95
2023-05-14T19:29:56.774Z,99504.15
2023-05-14T19:32:31.107Z,99503.29
2023-05-14T19:35:08.834Z,99502.23
2023-05-14T19:37:45.049Z,99500.15
2023-05-14T19:40:18.952Z,99500.52
2023-05-14T19:42:57.946Z,99503.30
2023-05-14T19:45:31.651Z,99508.50
2023-05-14T19:48:08.247Z,99507.11
2023-05-14T19:50:53.760Z,99509.55
2023-05-14T19:53:29.966Z,99510.75
2023-05-14T19:56:06.647Z,99507.61
2023-05-14T19:58:39.939Z,99505.55
2023-05-14T20:01:13.368Z,99503.30
2023-05-14T20:03:46.978Z,99507.11
2023-05-14T20:06:19.720Z,99510.74
2023-05-14T20:08:52.904Z,99508.15
2023-05-14T20:11:27.259Z,99506.77
2023-05-14T20:14:00.693Z,99502.45
2023-05-14T20:16:36.154Z,99497.61
2023-05-14T20:19:10.116Z,99489.47
2023-05-14T20:21:45.454Z,99485.66
2023-05-14T20:24:19.029Z,99482.88
2023-05-14T20:26:52.771Z,99479.77
2023-05-14T20:29:25.405Z,99473.02
2023-05-14T20:31:58.100Z,99464.34
2023-05-14T20:34:33.113Z,99454.11
2023-05-14T20:37:09.032Z,99451.16
2023-05-14T20:39:46.386Z,99446.49
2023-05-14T20:42:19.306Z,99445.11
2023-05-14T20:44:52.562Z,99433.68
2023-05-14T20:47:30.601Z,99423.12
2023-05-14T20:50:04.799Z,99414.11
2023-05-14T20:52:38.231Z,99403.75
2023-05-14T20:55:13.492Z,99397.19
2023-05-14T20:57:47.019Z,99377.12
2023-05-14T21:00:21.427Z,99361.55
2023-05-14T21:02:54.341Z,99347.55
2023-05-14T21:05:27.659Z,99340.97
2023-05-14T21:08:02.854Z,99338.02
2023-05-14T21:10:36.149Z,99331.80
2023-05-14T21:13:08.641Z,99324.02
2023-05-14T21:15:41.212Z,99316.42
2023-05-14T21:18:13.896Z,99314.69
2023-05-14T21:20:46.343Z,99306.75
2023-05-14T21:23:19.608Z,99300.16
2023-05-14T21:25:54.731Z,99297.57
2023-05-14T21:28:26.916Z,99298.96
2023-05-14T21:30:59.228Z,99296.20
2023-05-14T21:33:31.229Z,99296.89
2023-05-14T21:36:03.460Z,99292.05
2023-05-14T21:38:35.604Z,99289.10
2023-05-14T21:41:07.646Z,99279.94
2023-05-14T21:43:40.843Z,99270.27
2023-05-14T21:46:12.979Z,99267.50
2023-05-14T21:48:45.257Z,99264.23
2023-05-14T21:51:17.455Z,99263.34
2023-05-14T21:53:49.818Z,99266.63
2023-05-14T21:56:22.678Z,99265.23
2023-05-14T21:58:56.162Z,99265.74
2023-05-14T22:01:28.433Z,99259.33
2023-05-14T22:04:00.675Z,99254.31
2023-05-14T22:06:33.907Z,99255.70
2023-05-14T22:09:06.151Z,99252.95
2023-05-14T22:11:38.332Z,99254.49
2023-05-14T22:14:10.509Z,99253.27
2023-05-14T22:16:42.749Z,99254.48
2023-05-14T22:19:14.793Z,99250.35
2023-05-14T22:21:47.078Z,99247.58
2023-05-14T22:24:19.199Z,99241.87
2023-05-14T22:26:51.745Z,99244.29
2023-05-14T22:29:24.017Z,99241.36
2023-05-14T22:31:56.212Z,99242.20
2023-05-14T22:34:28.282Z,99239.42
2023-05-14T22:37:00.675Z,99238.73
2023-05-14T22:39:33.000Z,99234.42
2023-05-14T22:42:05.800Z,99233.73
2023-05-14T22:44:37.765Z,99231.14
2023-05-14T22:47:10.766Z,99223.70
2023-05-14T22:49:43.872Z,99222.98
2023-05-14T22:52:15.957Z,99218.49
2023-05-14T22:54:51.004Z,99212.46
2023-05-14T22:57:23.821Z,99202.42
2023-05-14T22:59:56.539Z,99204.31
2023-05-14T23:02:28.987Z,99195.33
2023-05-14T23:05:01.144Z,99189.44
2023-05-14T23:07:33.364Z,99183.92
2023-05-14T23:10:05.916Z,99187.55
2023-05-14T23:12:38.101Z,99185.65
2023-05-14T23:15:11.854Z,99181.53
2023-05-14T23:17:44.123Z,99171.00
2023-05-14T23:20:16.572Z,99164.42
2023-05-14T23:22:48.682Z,99155.08
2023-05-14T23:25:20.991Z,99149.04
2023-05-14T23:27:53.032Z,99140.23
2023-05-14T23:30:25.184Z,99138.31
2023-05-14T23:32:57.341Z,99135.89
2023-05-14T23:35:29.641Z,99130.02
2023-05-14T23:38:01.949Z,99120.69
2023-05-14T23:40:34.930Z,99111.17
2023-05-14T23:43:07.007Z,99105.98
2023-05-14T23:45:39.154Z,99098.73
2023-05-14T23:48:11.295Z,99096.64
2023-05-14T23:50:44.076Z,99088.19
2023-05-14T23:53:16.215Z,99082.15
2023-05-14T23:55:48.384Z,99086.65
2023-05-14T23:58:20.742Z,99089.95
